Share

Antlers, OK

Stamper Municipal (KHHW) Elev 571 ft | 34.03 °N, 95.54 °W | Change Station

Current weather conditions updated 13 minutes ago

Clear
Clear
63 °F
Feels Like 63 °F
N
7
Wind Variable Wind from ESE
Sunrise 6:48 AM
Sunset 7:55 PM
Moon Waning Gibbous

Today is forecast to be nearly the same temperature as yesterday.

Pressure 30.21 in
Visibility 10.0 miles
Clouds Clear
Dew Point 49 °F
Humidity 62%
Rainfall 0.00 in
Snow Depth Not available.
UV 5 out of 16
Pollen 9.00 out of 12
Air Quality Not available.
Flu Activity Regional
METAR KHHW 171515Z AUTO 11006KT 10SM CLR 17/10 A3021 RMK AO2 T01700096

More Conditions Fewer Conditions

Pressure 30.21 in
Visibility 10.0 miles
Clouds Clear
Dew Point 49 °F
Humidity 62%
Rainfall 0.00 in
Snow Depth Not available.
UV 5 out of 16
Pollen 9.00 out of 12
Air Quality Not available.
Flu Activity Regional
METAR KHHW 171515Z AUTO 11006KT 10SM CLR 17/10 A3021 RMK AO2 T01700096

More Conditions Fewer Conditions

10-Day Forecast

Almanac

Astronomy

Apr. 17, 2014 Rise Set
Actual Time 6:48 AM CDT 7:55 PM CDT
Civil Twilight 6:22 AM CDT 8:21 PM CDT
Nautical Twilight 5:52 AM CDT 8:52 PM CDT
Astronomical Twilight 5:20 AM CDT 9:24 PM CDT
Moon 10:37 PM CDT 8:25 AM CDT
Length of Visible Light 13h 58m
Length of Day
13h 06m
Tomorrow will be 2m 0s longer.
Waning Gibbous, 94% of the Moon is Illuminated
Today
Waning Gibbous
Apr 22
Last Quarter
Apr 29
New
May 6
First Quarter
May 14
Full

Today's Extremes

State Highs State Lows

Community

  • New Day
    New Day
  • Lake Michigan Sunrise
    Lake Michigan Sunrise
  • sunset from izmir, narlıdere
    sunset from izmir, narlıdere
  • oregon cherry
    oregon cherry
  • Sunset over the Bay
    Sunset over the Bay

WunderPhotos

Upload Photos

1,702,027 photos uploaded!

Nearby

Snow Depth

Station Depth Elevation
No new snow has been reported.

Coastal Water Temperatures

Place Temperature
No Stations Reporting

Earthquake Activity

City Distance Mag. Time & Date
Guthrie, Oklahoma 151 miles 3.7 3:02 PM CDT
2014-04-13
Guthrie, Oklahoma 150 miles 2.9 12:23 PM CDT
2014-04-13
Guthrie, Oklahoma 150 miles 3.8 12:00 PM CDT
2014-04-13
Edmond, Oklahoma 149 miles 2.5 8:10 AM CDT
2014-04-13
Minimum magnitude displayed is 2.5.

Nearby Weather Stations

Station Location Temp. Dew Point Humidity Wind Precip. Elev Updated Type
HADS HUGO LAKE RESERVOIR NEAR SAWYER OK, Sawyer, OK 52 °F 42 °F 70% ESE  at  5 mph 0.00 in / hr 465 ft 9:00 AM CDT MADIS

Show More Stations Show Fewer Stations

What do you think?

We're not finished. Please let us know what you like, what you don't like, and what you are still missing.